Time;durP1;ratioP1;P1;durP2;ratioP2;P2;SDS_P1;SDS_P2;PMS_P1;PMS_P2;Temp;Humidity;BMP_temperature;BMP_pressure;BME280_temperature;BME280_humidity;BME280_pressure;Samples;Min_cycle;Max_cycle;Signal;HPM_P1;HPM_P2
2024/01/30 00:01:13;;;;;;;16.90;11.10;;;7.40;99.90;;;;;;4794204;30;20240;-67
2024/01/30 00:03:38;;;;;;;18.03;11.80;;;7.40;99.90;;;;;;4794043;29;20202;-69
2024/01/30 00:06:04;;;;;;;13.80;11.83;;;7.30;99.90;;;;;;4793038;29;20326;-67
2024/01/30 00:08:29;;;;;;;16.27;12.23;;;7.30;99.90;;;;;;4792918;30;20276;-68
2024/01/30 00:10:55;;;;;;;14.50;11.50;;;7.30;99.90;;;;;;4792949;30;20620;-67
2024/01/30 00:13:20;;;;;;;14.60;12.17;;;7.30;99.90;;;;;;4792636;30;20207;-66
2024/01/30 00:15:46;;;;;;;17.00;11.50;;;7.30;99.90;;;;;;4792564;29;20693;-68
2024/01/30 00:18:12;;;;;;;19.87;13.33;;;7.30;99.90;;;;;;4797237;29;20190;-68
2024/01/30 00:20:37;;;;;;;13.77;11.73;;;7.30;99.90;;;;;;4793900;29;20234;-67
2024/01/30 00:23:03;;;;;;;12.77;10.43;;;7.20;99.90;;;;;;4798756;30;20267;-68
2024/01/30 00:25:29;;;;;;;14.70;11.80;;;7.20;99.90;;;;;;4797447;29;20227;-67
2024/01/30 00:27:54;;;;;;;14.33;10.87;;;7.20;99.90;;;;;;4793461;30;20205;-69
2024/01/30 00:30:20;;;;;;;16.77;12.60;;;7.20;99.90;;;;;;4792776;30;20471;-66
2024/01/30 00:32:46;;;;;;;15.70;10.80;;;7.20;99.90;;;;;;4795286;29;20199;-68
2024/01/30 00:35:11;;;;;;;13.43;11.03;;;7.20;99.90;;;;;;4799176;29;20211;-67
2024/01/30 00:37:37;;;;;;;12.73;11.17;;;7.10;99.90;;;;;;4793814;30;20233;-67
2024/01/30 00:40:03;;;;;;;14.20;9.80;;;7.10;99.90;;;;;;4794133;30;20191;-67
2024/01/30 00:42:29;;;;;;;15.70;11.53;;;7.10;99.90;;;;;;4793002;30;20198;-69
2024/01/30 00:44:54;;;;;;;15.83;11.67;;;7.10;99.90;;;;;;4795877;30;20432;-67
2024/01/30 00:47:20;;;;;;;14.80;11.80;;;7.10;99.90;;;;;;4794688;29;20226;-68
2024/01/30 00:49:46;;;;;;;15.67;10.90;;;7.00;99.90;;;;;;4797073;29;20554;-67
2024/01/30 00:52:13;;;;;;;13.57;10.97;;;7.00;99.90;;;;;;4792626;30;20183;-67
2024/01/30 00:54:38;;;;;;;16.80;11.83;;;7.00;99.90;;;;;;4796535;29;20263;-67
2024/01/30 00:57:04;;;;;;;14.10;11.53;;;7.00;99.90;;;;;;4798502;29;20452;-69
2024/01/30 00:59:29;;;;;;;13.53;10.27;;;7.00;99.90;;;;;;4798638;30;20278;-65
2024/01/30 01:01:55;;;;;;;14.17;11.13;;;7.00;99.90;;;;;;4798436;30;20391;-67
2024/01/30 01:04:21;;;;;;;15.03;11.60;;;7.00;99.90;;;;;;4799842;29;20700;-67
2024/01/30 01:06:47;;;;;;;15.60;11.37;;;7.00;99.90;;;;;;4782152;30;20541;-66
2024/01/30 01:09:13;;;;;;;13.90;10.97;;;7.00;99.90;;;;;;4799344;30;20422;-65
2024/01/30 01:11:38;;;;;;;14.30;11.03;;;6.90;99.90;;;;;;4799516;30;20728;-66
2024/01/30 01:14:04;;;;;;;15.33;11.20;;;7.00;99.90;;;;;;4798483;30;20264;-67
2024/01/30 01:16:30;;;;;;;16.97;11.60;;;7.00;99.90;;;;;;4797522;29;20297;-66
2024/01/30 01:18:56;;;;;;;13.57;10.47;;;7.00;99.90;;;;;;4799326;29;20471;-67
2024/01/30 01:21:21;;;;;;;19.00;10.10;;;7.00;99.90;;;;;;4803294;29;20537;-65
2024/01/30 01:23:47;;;;;;;11.90;9.67;;;6.90;99.90;;;;;;4795791;30;20199;-68
2024/01/30 01:26:13;;;;;;;18.10;11.33;;;7.00;99.90;;;;;;4794944;29;20231;-67
2024/01/30 01:28:40;;;;;;;13.50;11.00;;;7.00;99.90;;;;;;4794676;30;20207;-67
2024/01/30 01:31:06;;;;;;;15.83;11.07;;;7.00;99.90;;;;;;4794585;30;20528;-65
2024/01/30 01:33:33;;;;;;;16.27;10.47;;;7.00;99.90;;;;;;4796588;29;20429;-66
2024/01/30 01:35:59;;;;;;;16.70;11.37;;;7.00;99.90;;;;;;4794985;29;20645;-66
2024/01/30 01:38:25;;;;;;;13.30;9.87;;;7.00;99.90;;;;;;4794229;30;20433;-67
2024/01/30 01:40:51;;;;;;;14.67;11.23;;;7.10;99.90;;;;;;4794425;30;20456;-66
2024/01/30 01:43:16;;;;;;;14.30;10.60;;;7.10;99.90;;;;;;4794625;30;20445;-65
2024/01/30 01:45:42;;;;;;;14.00;10.77;;;7.20;99.90;;;;;;4794460;29;20375;-67
2024/01/30 01:48:09;;;;;;;16.60;11.10;;;7.10;99.90;;;;;;4795527;29;20226;-65
2024/01/30 01:50:36;;;;;;;15.83;10.53;;;7.20;99.90;;;;;;4798355;29;20649;-67
2024/01/30 01:53:02;;;;;;;13.00;10.20;;;7.20;99.90;;;;;;4797383;29;20452;-67
2024/01/30 01:55:30;;;;;;;15.83;10.70;;;7.20;99.90;;;;;;4794715;29;20487;-66
2024/01/30 01:57:56;;;;;;;12.73;9.40;;;7.30;99.90;;;;;;4794875;30;20527;-66
2024/01/30 02:00:22;;;;;;;18.03;11.30;;;7.30;99.90;;;;;;4794462;30;20500;-66
2024/01/30 02:02:50;;;;;;;17.53;10.63;;;7.30;99.90;;;;;;4795885;29;20760;-66
2024/01/30 02:05:16;;;;;;;18.03;10.60;;;7.30;99.90;;;;;;4792191;29;20443;-65
2024/01/30 02:07:43;;;;;;;14.90;11.17;;;7.30;99.90;;;;;;4791018;30;20555;-65
2024/01/30 02:10:09;;;;;;;14.50;10.00;;;7.40;99.90;;;;;;4791338;30;20493;-65
2024/01/30 02:12:35;;;;;;;10.10;8.60;;;7.30;99.90;;;;;;4791206;30;20514;-65
2024/01/30 02:15:01;;;;;;;12.43;9.60;;;7.40;99.90;;;;;;4791122;29;20524;-66
2024/01/30 02:17:26;;;;;;;11.23;9.10;;;7.40;99.90;;;;;;4791580;30;20195;-68
2024/01/30 02:19:52;;;;;;;14.27;10.00;;;7.40;99.90;;;;;;4793374;29;20215;-65
2024/01/30 02:22:19;;;;;;;16.63;10.30;;;7.30;99.90;;;;;;4791542;29;20203;-66
2024/01/30 02:24:45;;;;;;;18.47;10.40;;;7.30;99.90;;;;;;4790933;30;20213;-66
2024/01/30 02:27:10;;;;;;;15.60;10.70;;;7.30;99.90;;;;;;4791242;29;20480;-66
2024/01/30 02:29:36;;;;;;;12.93;10.47;;;7.30;99.90;;;;;;4791169;29;20244;-65
2024/01/30 02:32:02;;;;;;;14.70;10.47;;;7.30;99.90;;;;;;4791388;30;20207;-66
2024/01/30 02:34:27;;;;;;;11.93;9.70;;;7.30;99.90;;;;;;4792336;29;20198;-66
2024/01/30 02:36:53;;;;;;;14.10;10.37;;;7.30;99.90;;;;;;4791087;29;20283;-65
2024/01/30 02:39:18;;;;;;;12.63;10.20;;;7.30;99.90;;;;;;4791746;30;20226;-66
2024/01/30 02:41:44;;;;;;;11.70;10.50;;;7.30;99.90;;;;;;4790844;30;20357;-66
2024/01/30 02:44:09;;;;;;;14.83;9.63;;;7.30;99.90;;;;;;4790945;30;20360;-66
2024/01/30 02:46:35;;;;;;;17.57;9.97;;;7.30;99.90;;;;;;4790528;29;20219;-66
2024/01/30 02:49:00;;;;;;;14.40;9.73;;;7.30;99.90;;;;;;4791846;29;20202;-66
2024/01/30 02:51:26;;;;;;;13.50;10.33;;;7.40;99.90;;;;;;4791120;29;20329;-67
2024/01/30 02:53:51;;;;;;;12.77;9.90;;;7.40;99.90;;;;;;4793712;29;20274;-67
2024/01/30 02:56:17;;;;;;;13.67;9.87;;;7.40;99.90;;;;;;4790289;29;20315;-65
2024/01/30 02:58:43;;;;;;;12.07;9.87;;;7.40;99.90;;;;;;4790760;30;20343;-65
2024/01/30 03:01:09;;;;;;;11.10;9.70;;;7.40;99.90;;;;;;4790743;30;20471;-65
2024/01/30 03:03:35;;;;;;;11.73;8.27;;;7.30;99.90;;;;;;4795275;29;20205;-67
2024/01/30 03:06:01;;;;;;;11.33;10.00;;;7.30;99.90;;;;;;4790204;29;20403;-67
2024/01/30 03:08:27;;;;;;;11.07;9.17;;;7.30;99.90;;;;;;4790381;30;20897;-65
2024/01/30 03:10:53;;;;;;;10.83;9.10;;;7.30;99.90;;;;;;4790222;30;20571;-66
2024/01/30 03:13:19;;;;;;;18.30;9.80;;;7.30;99.90;;;;;;4790067;30;20195;-67
2024/01/30 03:15:44;;;;;;;14.23;9.20;;;7.30;99.90;;;;;;4790735;29;20238;-67
2024/01/30 03:18:10;;;;;;;12.87;10.27;;;7.40;99.90;;;;;;4794727;29;20237;-66
2024/01/30 03:20:35;;;;;;;13.17;9.90;;;7.40;99.90;;;;;;4791577;29;20221;-66
2024/01/30 03:23:01;;;;;;;16.63;10.03;;;7.40;99.90;;;;;;4790669;30;20211;-64
2024/01/30 03:25:27;;;;;;;13.10;9.80;;;7.40;99.90;;;;;;4790411;29;20214;-66
2024/01/30 03:27:52;;;;;;;14.27;10.43;;;7.40;99.90;;;;;;4790973;30;20661;-66
2024/01/30 03:30:18;;;;;;;16.73;9.73;;;7.40;99.90;;;;;;4789702;30;20211;-65
2024/01/30 03:32:43;;;;;;;12.27;9.87;;;7.40;99.90;;;;;;4791620;29;20179;-64
2024/01/30 03:35:09;;;;;;;18.10;9.43;;;7.40;99.90;;;;;;4792570;29;20194;-67
2024/01/30 03:37:35;;;;;;;14.33;10.73;;;7.40;99.90;;;;;;4791754;30;20523;-65
2024/01/30 03:40:02;;;;;;;16.00;8.73;;;7.40;99.90;;;;;;4791375;30;20203;-66
2024/01/30 03:42:27;;;;;;;12.13;9.10;;;7.40;99.90;;;;;;4792767;30;20204;-66
2024/01/30 03:44:53;;;;;;;15.13;10.20;;;7.30;99.90;;;;;;4791688;30;20429;-67
2024/01/30 03:47:20;;;;;;;15.97;9.50;;;7.40;99.90;;;;;;4791355;29;20310;-66
2024/01/30 03:49:45;;;;;;;12.23;8.57;;;7.40;99.90;;;;;;4794443;29;20202;-66
2024/01/30 03:52:11;;;;;;;12.77;10.20;;;7.30;99.90;;;;;;4790214;29;20752;-66
2024/01/30 03:54:37;;;;;;;11.47;9.50;;;7.30;99.90;;;;;;4795387;29;20270;-65
2024/01/30 03:57:02;;;;;;;11.83;9.40;;;7.30;99.90;;;;;;4789599;29;20246;-67
2024/01/30 03:59:28;;;;;;;13.53;9.60;;;7.30;99.90;;;;;;4789540;30;20206;-71
2024/01/30 04:01:54;;;;;;;13.13;10.00;;;7.30;99.90;;;;;;4790050;30;20195;-66
2024/01/30 04:04:19;;;;;;;12.37;10.20;;;7.30;99.90;;;;;;4792271;29;20203;-66
2024/01/30 04:06:45;;;;;;;14.73;10.50;;;7.30;99.90;;;;;;4790043;29;20484;-66
2024/01/30 04:09:13;;;;;;;13.30;9.70;;;7.30;99.90;;;;;;4789556;30;20198;-67
2024/01/30 04:11:39;;;;;;;10.97;8.53;;;7.20;99.90;;;;;;4788415;30;20440;-67
2024/01/30 04:14:04;;;;;;;16.70;10.07;;;7.20;99.90;;;;;;4789681;30;20497;-66
2024/01/30 04:16:30;;;;;;;12.87;9.33;;;7.20;99.90;;;;;;4788686;29;20548;-64
2024/01/30 04:18:56;;;;;;;13.67;9.13;;;7.20;99.90;;;;;;4791656;29;20534;-66
2024/01/30 04:21:22;;;;;;;10.27;8.07;;;7.20;99.90;;;;;;4794320;29;20199;-67
2024/01/30 04:23:48;;;;;;;10.40;8.57;;;7.10;99.90;;;;;;4789614;30;20207;-67
2024/01/30 04:26:14;;;;;;;10.70;9.20;;;7.10;99.90;;;;;;4788968;29;20572;-67
2024/01/30 04:28:41;;;;;;;14.87;10.30;;;7.00;99.90;;;;;;4788564;30;20425;-67
2024/01/30 04:31:07;;;;;;;14.13;9.77;;;7.00;99.90;;;;;;4789177;30;20416;-67
2024/01/30 04:33:33;;;;;;;15.30;9.93;;;7.00;99.90;;;;;;4790097;29;20429;-66
2024/01/30 04:35:58;;;;;;;12.03;8.77;;;6.90;99.90;;;;;;4788713;29;20400;-66
2024/01/30 04:38:24;;;;;;;12.00;9.43;;;6.90;99.90;;;;;;4788860;30;20623;-65
2024/01/30 04:40:49;;;;;;;16.63;9.40;;;6.80;99.90;;;;;;4788995;30;20187;-66
2024/01/30 04:43:15;;;;;;;12.00;8.80;;;6.80;99.90;;;;;;4787976;30;20200;-66
2024/01/30 04:45:41;;;;;;;12.33;9.50;;;6.70;99.90;;;;;;4788486;29;20620;-66
2024/01/30 04:48:07;;;;;;;14.40;9.53;;;6.70;99.90;;;;;;4790525;29;20577;-66
2024/01/30 04:50:33;;;;;;;11.87;9.33;;;6.70;99.90;;;;;;4791320;29;20531;-66
2024/01/30 04:52:58;;;;;;;13.87;9.10;;;6.70;99.90;;;;;;4791302;29;20230;-65
2024/01/30 04:55:24;;;;;;;13.20;9.70;;;6.70;99.90;;;;;;4789015;29;20234;-67
2024/01/30 04:57:49;;;;;;;12.20;9.40;;;6.70;99.90;;;;;;4788975;30;20235;-66
2024/01/30 05:00:15;;;;;;;11.90;9.20;;;6.60;99.90;;;;;;4789795;30;20198;-67
2024/01/30 05:02:41;;;;;;;11.57;8.07;;;6.60;99.90;;;;;;4791608;29;20593;-68
2024/01/30 05:05:07;;;;;;;10.30;8.60;;;6.60;99.90;;;;;;4791559;29;20417;-66
2024/01/30 05:07:34;;;;;;;11.83;9.57;;;6.50;99.90;;;;;;4791017;30;20227;-67
2024/01/30 05:09:59;;;;;;;11.70;10.33;;;6.60;99.90;;;;;;4790701;30;20420;-67
2024/01/30 05:12:26;;;;;;;12.20;9.50;;;6.60;99.90;;;;;;4791341;30;20998;-69
2024/01/30 05:14:51;;;;;;;10.63;9.03;;;6.60;99.90;;;;;;4791402;30;20282;-67
2024/01/30 05:17:17;;;;;;;16.00;10.70;;;6.60;99.90;;;;;;4790515;29;20543;-68
2024/01/30 05:19:43;;;;;;;14.00;9.57;;;6.60;99.90;;;;;;4791562;29;20219;-66
2024/01/30 05:22:09;;;;;;;12.77;9.37;;;6.70;99.90;;;;;;4791549;29;20549;-67
2024/01/30 05:24:35;;;;;;;14.10;9.60;;;6.70;99.90;;;;;;4790971;30;20463;-67
2024/01/30 05:27:01;;;;;;;11.77;10.00;;;6.70;99.90;;;;;;4790680;29;20616;-69
2024/01/30 05:29:27;;;;;;;11.67;10.10;;;6.60;99.90;;;;;;4790191;30;20436;-71
2024/01/30 05:31:52;;;;;;;12.70;10.70;;;6.60;99.90;;;;;;4791609;30;20285;-67
2024/01/30 05:34:18;;;;;;;12.63;9.77;;;6.60;99.90;;;;;;4791369;29;20489;-66
2024/01/30 05:36:44;;;;;;;10.53;8.87;;;6.60;99.90;;;;;;4791884;29;20227;-67
2024/01/30 05:39:10;;;;;;;13.30;9.60;;;6.60;99.90;;;;;;4792619;29;20214;-69
2024/01/30 05:41:35;;;;;;;13.03;9.93;;;6.50;99.90;;;;;;4795316;30;20207;-68
2024/01/30 05:44:02;;;;;;;15.70;10.30;;;6.50;99.90;;;;;;4796025;30;20493;-69
2024/01/30 05:46:28;;;;;;;15.23;9.77;;;6.60;99.90;;;;;;4796685;29;20622;-70
2024/01/30 05:48:53;;;;;;;15.40;10.60;;;6.60;99.90;;;;;;4801695;29;20420;-71
2024/01/30 05:51:19;;;;;;;11.40;9.57;;;6.70;99.90;;;;;;4797609;29;20191;-67
2024/01/30 05:53:44;;;;;;;13.47;11.20;;;6.60;99.90;;;;;;4795738;29;20278;-67
2024/01/30 05:56:10;;;;;;;14.37;9.93;;;6.70;99.90;;;;;;4796506;29;20242;-72
2024/01/30 05:58:37;;;;;;;13.57;9.53;;;6.70;99.90;;;;;;4796132;30;20211;-66
2024/01/30 06:01:06;;;;;;;14.47;9.40;;;6.60;99.90;;;;;;4797604;30;20343;-67
2024/01/30 06:03:32;;;;;;;17.63;11.13;;;6.60;99.90;;;;;;4803124;29;20444;-66
2024/01/30 06:05:57;;;;;;;17.10;10.07;;;6.50;99.90;;;;;;4795094;29;20491;-69
2024/01/30 06:08:23;;;;;;;10.87;9.00;;;6.60;99.90;;;;;;4797580;30;20227;-68
2024/01/30 06:10:49;;;;;;;14.70;11.13;;;6.50;99.90;;;;;;4796287;30;20184;-69
2024/01/30 06:13:14;;;;;;;15.83;10.53;;;6.50;99.90;;;;;;4779355;29;20175;-68
2024/01/30 06:15:40;;;;;;;15.50;11.40;;;6.50;99.90;;;;;;4795771;29;20231;-70
2024/01/30 06:18:05;;;;;;;14.63;10.23;;;6.50;99.90;;;;;;4799423;29;20186;-67
2024/01/30 06:20:31;;;;;;;13.53;10.23;;;6.40;99.90;;;;;;4796156;29;20195;-71
2024/01/30 06:22:56;;;;;;;16.37;11.70;;;6.40;99.90;;;;;;4796307;30;20234;-69
2024/01/30 06:25:22;;;;;;;12.53;9.80;;;6.40;99.90;;;;;;4795965;29;20490;-70
2024/01/30 06:27:48;;;;;;;12.60;11.10;;;6.40;99.90;;;;;;4794924;30;20302;-70
2024/01/30 06:30:14;;;;;;;13.43;10.07;;;6.50;99.90;;;;;;4795156;30;20199;-69
2024/01/30 06:32:40;;;;;;;14.13;10.10;;;6.50;99.90;;;;;;4796698;29;20444;-71
2024/01/30 06:35:06;;;;;;;14.47;10.33;;;6.50;99.90;;;;;;4797055;29;20195;-71
2024/01/30 06:37:31;;;;;;;12.27;9.30;;;6.50;99.90;;;;;;4794340;30;20609;-73
2024/01/30 06:39:57;;;;;;;12.43;10.10;;;6.60;99.90;;;;;;4795078;30;20443;-70
2024/01/30 06:42:22;;;;;;;13.93;10.07;;;6.60;99.90;;;;;;4795312;30;20192;-69
2024/01/30 06:44:48;;;;;;;13.63;10.27;;;6.70;99.90;;;;;;4794764;30;20516;-68
2024/01/30 06:47:13;;;;;;;14.80;10.03;;;6.70;99.90;;;;;;4795107;29;20235;-70
2024/01/30 06:49:41;;;;;;;18.60;11.00;;;6.80;99.90;;;;;;4797078;29;20187;-71
2024/01/30 06:52:08;;;;;;;17.17;10.70;;;6.80;99.90;;;;;;4791076;29;20318;-67
2024/01/30 06:54:34;;;;;;;12.97;9.87;;;6.90;99.90;;;;;;4794474;30;20895;-71
2024/01/30 06:57:00;;;;;;;14.07;10.87;;;6.90;99.90;;;;;;4794117;29;20476;-69
2024/01/30 06:59:25;;;;;;;13.63;9.37;;;6.90;99.90;;;;;;4794716;30;20191;-73
2024/01/30 07:01:51;;;;;;;12.50;9.73;;;6.90;99.90;;;;;;4795828;30;20481;-67
2024/01/30 07:04:18;;;;;;;15.00;10.43;;;6.90;99.90;;;;;;4796771;29;20195;-69
2024/01/30 07:06:43;;;;;;;14.00;10.20;;;6.90;99.90;;;;;;4794868;29;20227;-69
2024/01/30 07:09:09;;;;;;;13.83;10.77;;;7.00;99.90;;;;;;4793999;30;20429;-68
2024/01/30 07:11:35;;;;;;;14.80;10.40;;;7.10;99.90;;;;;;4794186;30;20203;-72
2024/01/30 07:14:03;;;;;;;12.50;10.60;;;7.00;99.90;;;;;;4795229;30;20218;-72
2024/01/30 07:16:29;;;;;;;15.43;10.97;;;7.00;99.90;;;;;;4795612;29;20242;-73
2024/01/30 07:18:55;;;;;;;13.33;9.57;;;7.00;99.90;;;;;;4797996;29;20602;-71
2024/01/30 07:21:25;;;;;;;14.10;10.30;;;7.00;99.90;;;;;;4794088;29;20494;-69
2024/01/30 07:23:50;;;;;;;11.70;10.30;;;7.00;99.90;;;;;;4794224;30;20433;-69
2024/01/30 07:26:17;;;;;;;17.00;10.50;;;7.10;99.90;;;;;;4794557;29;20491;-69
2024/01/30 07:28:43;;;;;;;15.00;9.80;;;7.10;99.90;;;;;;4795722;30;20207;-71
2024/01/30 07:31:09;;;;;;;14.60;9.60;;;7.00;99.90;;;;;;4795293;30;20703;-68
2024/01/30 07:33:34;;;;;;;11.50;9.47;;;7.10;99.90;;;;;;4795244;29;20433;-71
2024/01/30 07:36:00;;;;;;;14.60;10.33;;;7.10;99.90;;;;;;4793125;29;20287;-73
2024/01/30 07:38:26;;;;;;;14.53;10.80;;;7.20;99.90;;;;;;4794813;30;20213;-70
2024/01/30 07:40:51;;;;;;;15.23;10.77;;;7.20;99.90;;;;;;4794096;30;20203;-69
2024/01/30 07:43:17;;;;;;;14.70;9.47;;;7.20;99.90;;;;;;4795665;30;20195;-72
2024/01/30 07:45:42;;;;;;;12.80;9.60;;;7.20;99.90;;;;;;4795138;29;20630;-70
2024/01/30 07:48:08;;;;;;;11.50;9.57;;;7.20;99.90;;;;;;4794751;29;20206;-69
2024/01/30 07:50:34;;;;;;;12.73;10.20;;;7.30;99.90;;;;;;4792294;29;20297;-71
2024/01/30 07:53:00;;;;;;;14.63;10.43;;;7.40;99.90;;;;;;4794902;29;20378;-70
2024/01/30 07:55:28;;;;;;;13.70;10.20;;;7.40;99.90;;;;;;4796106;29;20434;-70
2024/01/30 07:57:54;;;;;;;13.57;9.93;;;7.50;99.90;;;;;;4795444;30;20441;-69
2024/01/30 08:00:21;;;;;;;12.30;8.90;;;7.50;99.90;;;;;;4793009;30;20523;-69
2024/01/30 08:02:47;;;;;;;10.97;8.90;;;7.50;99.90;;;;;;4794357;29;20468;-70
2024/01/30 08:05:15;;;;;;;16.10;9.50;;;7.50;99.90;;;;;;4796545;29;20444;-72
2024/01/30 08:07:43;;;;;;;12.10;9.30;;;7.60;99.90;;;;;;4797453;30;20241;-72
2024/01/30 08:10:11;;;;;;;13.57;9.53;;;7.60;99.90;;;;;;4786098;30;20508;-70
2024/01/30 08:12:37;;;;;;;12.47;9.37;;;7.70;99.90;;;;;;4778824;30;20526;-70
2024/01/30 08:15:03;;;;;;;12.60;9.43;;;7.70;99.90;;;;;;4794408;29;20809;-71
2024/01/30 08:17:29;;;;;;;10.00;9.00;;;7.60;99.90;;;;;;4797863;29;20235;-71
2024/01/30 08:19:54;;;;;;;12.43;9.57;;;7.70;99.90;;;;;;4793939;29;20425;-69
2024/01/30 08:22:20;;;;;;;13.10;10.07;;;7.70;99.90;;;;;;4794628;30;20753;-69
2024/01/30 08:24:45;;;;;;;14.33;9.57;;;7.70;99.90;;;;;;4792125;29;20377;-71
2024/01/30 08:27:12;;;;;;;11.10;8.50;;;7.80;99.90;;;;;;4791162;29;20896;-69
2024/01/30 08:29:37;;;;;;;16.70;10.90;;;7.80;99.90;;;;;;4793868;30;20218;-67
2024/01/30 08:32:05;;;;;;;15.07;10.03;;;7.80;99.90;;;;;;4794442;30;20501;-68
2024/01/30 08:34:31;;;;;;;14.77;9.20;;;7.90;99.90;;;;;;4796408;29;20235;-69
2024/01/30 08:36:56;;;;;;;16.47;9.80;;;7.90;99.90;;;;;;4795187;29;20514;-68
2024/01/30 08:39:22;;;;;;;13.80;9.47;;;7.90;99.90;;;;;;4792871;29;20633;-70
2024/01/30 08:41:47;;;;;;;12.97;10.07;;;8.00;99.90;;;;;;4795908;29;20480;-70
2024/01/30 08:44:13;;;;;;;15.67;10.83;;;8.00;99.90;;;;;;4795559;30;20203;-70
2024/01/30 08:46:39;;;;;;;13.10;9.10;;;8.00;99.90;;;;;;4795457;29;20215;-72
2024/01/30 08:49:04;;;;;;;16.37;9.70;;;8.10;99.90;;;;;;4797646;29;20252;-72
2024/01/30 08:51:30;;;;;;;12.60;9.57;;;8.10;99.90;;;;;;4795858;29;20202;-72
2024/01/30 08:53:56;;;;;;;13.20;8.57;;;8.10;99.90;;;;;;4795637;29;20207;-71
2024/01/30 08:56:21;;;;;;;10.73;9.43;;;8.10;99.90;;;;;;4789469;29;20630;-70
2024/01/30 08:58:47;;;;;;;12.53;9.23;;;8.20;99.90;;;;;;4775920;30;20262;-69
2024/01/30 09:01:13;;;;;;;12.50;9.20;;;8.20;99.90;;;;;;4771160;30;20192;-70
2024/01/30 09:03:40;;;;;;;10.93;9.20;;;8.30;99.90;;;;;;4776457;30;20512;-68
2024/01/30 09:06:12;;;;;;;11.33;8.60;;;8.40;99.90;;;;;;4776635;30;20508;-71
2024/01/30 09:08:38;;;;;;;12.17;9.67;;;8.40;99.90;;;;;;4773308;30;20460;-69
2024/01/30 09:11:13;;;;;;;12.63;10.07;;;8.40;99.90;;;;;;4775859;30;20425;-68
2024/01/30 09:13:38;;;;;;;13.93;9.53;;;8.50;99.90;;;;;;4778509;30;20473;-70
2024/01/30 09:16:05;;;;;;;13.50;9.90;;;8.60;99.90;;;;;;4779439;30;20446;-69
2024/01/30 09:18:30;;;;;;;11.30;9.10;;;8.70;99.90;;;;;;4783587;30;20252;-69
2024/01/30 09:20:56;;;;;;;13.40;11.03;;;8.70;99.90;;;;;;4789879;30;20465;-68
2024/01/30 09:23:22;;;;;;;13.00;10.43;;;8.80;99.90;;;;;;4784513;30;20223;-71
2024/01/30 09:25:48;;;;;;;13.90;10.23;;;9.00;99.90;;;;;;4785200;30;20681;-69
2024/01/30 09:28:13;;;;;;;11.17;9.53;;;8.90;99.90;;;;;;4784903;30;20207;-71
2024/01/30 09:30:39;;;;;;;12.27;9.60;;;9.00;99.90;;;;;;4799222;30;20450;-70
2024/01/30 09:33:06;;;;;;;13.23;8.50;;;9.10;99.90;;;;;;4786968;30;20277;-71
2024/01/30 09:35:32;;;;;;;13.20;9.90;;;9.20;99.90;;;;;;4799281;29;20226;-73
2024/01/30 09:37:57;;;;;;;9.93;8.03;;;9.10;99.90;;;;;;4781091;30;20505;-71
2024/01/30 09:40:24;;;;;;;13.60;9.17;;;9.30;99.90;;;;;;4782797;30;20612;-69
2024/01/30 09:42:50;;;;;;;12.50;10.20;;;9.30;99.90;;;;;;4796158;30;20231;-70
2024/01/30 09:45:19;;;;;;;8.73;7.83;;;9.40;99.90;;;;;;4793236;29;20425;-80
2024/01/30 09:48:05;;;;;;;9.70;8.70;;;9.40;99.90;;;;;;4792774;29;20475;-82
2024/01/30 09:50:37;;;;;;;14.87;9.07;;;9.40;99.90;;;;;;4768756;30;20428;-82
2024/01/30 09:53:35;;;;;;;12.53;9.33;;;9.50;99.90;;;;;;4766386;30;20447;-81
2024/01/30 10:05:19;;;;;;;11.60;8.47;;;9.80;99.90;;;;;;4152660;23;20490;-71
2024/01/30 10:07:55;;;;;;;8.17;7.10;;;9.90;99.90;;;;;;4852264;29;20616;-71
2024/01/30 10:10:23;;;;;;;11.00;9.10;;;10.00;99.90;;;;;;4853265;29;20468;-71
2024/01/30 10:12:49;;;;;;;14.07;9.70;;;10.10;99.90;;;;;;4869212;29;20442;-71
2024/01/30 10:15:15;;;;;;;10.03;8.60;;;10.20;99.90;;;;;;4851063;29;20508;-72
2024/01/30 10:17:40;;;;;;;12.53;7.80;;;10.20;99.90;;;;;;4851913;29;20209;-69
2024/01/30 10:20:07;;;;;;;11.50;8.13;;;10.40;99.90;;;;;;4851388;29;20426;-70
2024/01/30 10:22:33;;;;;;;11.50;8.50;;;10.40;99.90;;;;;;4850723;29;20245;-68
2024/01/30 10:25:00;;;;;;;13.33;8.77;;;10.50;99.90;;;;;;4853887;29;20448;-68
2024/01/30 10:27:27;;;;;;;12.00;9.07;;;10.60;99.90;;;;;;4849900;29;20233;-71
2024/01/30 10:29:53;;;;;;;10.90;8.50;;;10.60;99.90;;;;;;4850121;29;20438;-67
2024/01/30 10:32:19;;;;;;;16.77;9.77;;;10.70;99.90;;;;;;4851015;29;20431;-70
2024/01/30 10:34:45;;;;;;;17.40;10.90;;;10.70;99.90;;;;;;4848614;29;20205;-71
2024/01/30 10:37:12;;;;;;;11.87;9.30;;;10.60;99.90;;;;;;4851735;29;20532;-71
2024/01/30 10:39:39;;;;;;;11.10;8.77;;;10.50;99.90;;;;;;4851948;29;20206;-70
2024/01/30 10:42:06;;;;;;;15.73;10.20;;;10.60;99.90;;;;;;4851290;29;20918;-72
2024/01/30 10:44:47;;;;;;;12.67;8.67;;;10.60;99.90;;;;;;4851198;29;20439;-70
2024/01/30 10:47:21;;;;;;;16.70;9.50;;;10.50;99.90;;;;;;4850905;29;20537;-71
2024/01/30 10:49:47;;;;;;;12.67;9.63;;;10.70;99.90;;;;;;4854020;29;20423;-72
2024/01/30 10:52:14;;;;;;;9.90;7.50;;;10.70;99.90;;;;;;4846445;29;20428;-73
2024/01/30 10:54:42;;;;;;;13.40;8.07;;;10.80;99.90;;;;;;4858820;29;20443;-71
2024/01/30 10:57:10;;;;;;;12.07;8.40;;;10.90;99.90;;;;;;4866533;29;20494;-72
2024/01/30 10:59:36;;;;;;;11.27;7.53;;;10.90;99.90;;;;;;4853166;29;20421;-71
2024/01/30 11:02:02;;;;;;;9.50;7.70;;;11.10;99.90;;;;;;4865464;29;20433;-70
2024/01/30 11:04:40;;;;;;;14.33;8.20;;;11.20;99.90;;;;;;4856065;29;20493;-71
2024/01/30 11:07:17;;;;;;;11.50;8.97;;;11.10;99.90;;;;;;4867016;29;20542;-73
2024/01/30 11:10:03;;;;;;;10.47;7.00;;;11.20;99.90;;;;;;4851840;29;20439;-72
2024/01/30 11:12:32;;;;;;;10.33;7.53;;;11.20;99.90;;;;;;4845097;29;20437;-73
2024/01/30 11:15:17;;;;;;;10.00;7.20;;;11.20;99.90;;;;;;4851651;29;20442;-73
2024/01/30 11:17:49;;;;;;;12.93;7.90;;;11.30;99.90;;;;;;4855566;29;20449;-76
2024/01/30 11:20:16;;;;;;;12.40;8.63;;;11.30;99.90;;;;;;4859092;29;20441;-77
2024/01/30 11:22:46;;;;;;;10.10;8.90;;;11.40;99.90;;;;;;4853955;29;20480;-76
2024/01/30 11:25:17;;;;;;;8.90;7.83;;;11.40;99.90;;;;;;4872006;29;20422;-78
2024/01/30 11:27:44;;;;;;;10.17;7.73;;;11.50;99.90;;;;;;4857885;29;20485;-77
2024/01/30 11:30:28;;;;;;;9.23;7.40;;;11.50;99.90;;;;;;4837603;29;20453;-74
2024/01/30 11:33:05;;;;;;;15.70;9.87;;;11.60;99.90;;;;;;4859683;29;20442;-77
2024/01/30 11:35:32;;;;;;;15.53;9.77;;;11.70;99.90;;;;;;4842128;29;20547;-77
2024/01/30 11:38:02;;;;;;;11.57;9.00;;;11.80;99.90;;;;;;4871393;29;20417;-78
2024/01/30 11:40:29;;;;;;;10.43;7.80;;;11.90;99.90;;;;;;4872933;29;20440;-76
2024/01/30 11:43:00;;;;;;;10.90;8.00;;;11.80;99.90;;;;;;4873179;29;20434;-76
2024/01/30 11:45:27;;;;;;;12.00;8.50;;;12.00;99.90;;;;;;4855066;29;20519;-76
2024/01/30 11:47:53;;;;;;;13.30;8.17;;;12.00;99.90;;;;;;4873617;29;20456;-77
2024/01/30 11:50:22;;;;;;;13.63;7.33;;;12.00;99.90;;;;;;4860198;29;20438;-78
2024/01/30 11:52:48;;;;;;;10.83;6.70;;;12.00;99.90;;;;;;4857710;29;20422;-78
2024/01/30 11:55:15;;;;;;;12.00;7.70;;;12.00;99.90;;;;;;4858717;29;20491;-75
2024/01/30 11:57:41;;;;;;;7.57;6.50;;;12.10;99.90;;;;;;4871230;29;20430;-75
2024/01/30 12:00:15;;;;;;;10.73;7.63;;;12.10;99.90;;;;;;4855511;29;20426;-78
2024/01/30 12:02:41;;;;;;;8.10;5.60;;;12.20;99.90;;;;;;4854160;29;20442;-78
2024/01/30 12:05:10;;;;;;;8.40;6.20;;;12.20;99.90;;;;;;4857861;29;20554;-77
2024/01/30 12:07:37;;;;;;;6.70;6.00;;;12.40;99.90;;;;;;4855772;29;20863;-78
2024/01/30 12:10:03;;;;;;;8.77;7.77;;;12.30;99.90;;;;;;4854912;29;20422;-76
2024/01/30 12:12:29;;;;;;;10.00;7.57;;;12.40;99.90;;;;;;4853915;29;20783;-78
2024/01/30 12:14:56;;;;;;;8.77;7.67;;;12.40;99.90;;;;;;4858817;29;20559;-77
2024/01/30 12:17:35;;;;;;;11.37;8.00;;;12.40;99.90;;;;;;4856327;29;20491;-77
2024/01/30 12:20:12;;;;;;;9.60;6.30;;;12.50;99.90;;;;;;4856115;29;20442;-77
2024/01/30 12:22:43;;;;;;;15.03;9.27;;;12.50;99.90;;;;;;4845814;29;20438;-77
2024/01/30 12:25:17;;;;;;;11.83;7.73;;;12.40;99.90;;;;;;4870931;29;20517;-76
2024/01/30 12:27:45;;;;;;;12.40;8.37;;;12.40;99.90;;;;;;4867566;29;20470;-72
2024/01/30 12:30:13;;;;;;;10.90;8.40;;;12.50;99.90;;;;;;4849541;29;20434;-74
2024/01/30 12:32:43;;;;;;;10.57;7.80;;;12.50;99.90;;;;;;4846467;29;20441;-70
2024/01/30 12:35:19;;;;;;;10.03;7.10;;;12.50;99.90;;;;;;4851038;29;20448;-71
2024/01/30 12:37:46;;;;;;;9.17;7.60;;;12.60;99.90;;;;;;4850144;29;20425;-70
2024/01/30 12:40:14;;;;;;;8.83;7.37;;;12.70;99.90;;;;;;4850293;29;20717;-72
2024/01/30 12:42:41;;;;;;;8.37;6.17;;;12.70;99.90;;;;;;4851352;29;20425;-71
2024/01/30 12:45:07;;;;;;;8.10;5.33;;;12.70;99.90;;;;;;4852528;29;20510;-72
2024/01/30 12:47:33;;;;;;;5.93;5.33;;;12.70;99.90;;;;;;4852688;29;20924;-73